Thorhult, Minnesota
Current Conditions -  °F | °C
As of 12:09 PM on Friday 19 Dec 2014 (Local Time) from KVWU Reporting Station
Overcast Overcast  
Wind Chill: -4°   Ceiling: 1800
Heat Index: -4°   Visibility: 7mi
Dew Point: -6°   Wind: 3mph
Humidity: 86%   Direction: 140°SE
Pressure: 30.11"   Gusts: NA
Location:  48.23°N, 95.25°W
Report Text: KVWU 191809Z AUTO 14003KT 7SM SCT012 OVC018 M04/M06 A3011 RMK AO2
Loading
Personal Weather Stations






























Interactive Weather Map New forecast layout! Learn more

10-Day Weather Forecast

Advertisements
Track Severe Weather on mobile